Constantine, Michigan
Current Conditions -  °F | °C
As of 2:54 PM on Monday 22 Dec 2014 (Local Time) from KHAI Reporting Station
Drizzle Drizzle  
Wind Chill: 31°   Ceiling: 4400
Heat Index: 37°   Visibility: 7mi
Dew Point: 31°   Wind: 8mph
Humidity: 78%   Direction: 120°ESE
Pressure: 29.85"   Gusts: NA
Location:  41.84°N, 85.67°W
Report Text: KHAI 221954Z AUTO 12007KT 7SM -DZ SCT017 OVC044 03/00 A2985 RMK AO2 T00301005
Loading
Personal Weather Stations






























Interactive Weather Map New forecast layout! Learn more

10-Day Weather Forecast

Advertisements
Track Severe Weather on mobile